Time;durP1;ratioP1;P1;durP2;ratioP2;P2;SDS_P1;SDS_P2;PMS_P1;PMS_P2;Temp;Humidity;BMP_temperature;BMP_pressure;BME280_temperature;BME280_humidity;BME280_pressure;Samples;Min_cycle;Max_cycle;Signal;HPM_P1;HPM_P2
2021/06/06 00:02:05;;;;;;;1999.90;999.90;;;8.50;99.90;;;;;;5092988;28;20281;-56
2021/06/06 00:04:32;;;;;;;1999.90;999.90;;;8.50;99.90;;;;;;5092831;28;20708;-54
2021/06/06 00:06:59;;;;;;;1999.90;999.90;;;8.50;99.90;;;;;;5092940;28;20167;-51
2021/06/06 00:09:26;;;;;;;1999.90;999.90;;;8.60;99.90;;;;;;5093031;28;20660;-52
2021/06/06 00:11:54;;;;;;;1999.90;999.90;;;8.60;99.90;;;;;;5092866;28;20160;-53
2021/06/06 00:14:31;;;;;;;1999.90;999.90;;;8.60;99.90;;;;;;5092923;28;20309;-52
2021/06/06 00:17:00;;;;;;;1999.90;999.90;;;8.50;99.90;;;;;;5092860;28;20159;-53
2021/06/06 00:19:29;;;;;;;1999.90;999.90;;;8.50;99.90;;;;;;5092891;28;20174;-56
2021/06/06 00:21:58;;;;;;;1999.90;999.90;;;8.40;99.90;;;;;;5092801;28;20195;-53
2021/06/06 00:24:29;;;;;;;1999.90;999.90;;;8.40;99.90;;;;;;5092902;28;20160;-56
2021/06/06 00:26:56;;;;;;;1999.90;999.90;;;8.40;99.90;;;;;;5092830;28;20163;-52
2021/06/06 00:29:25;;;;;;;1999.90;999.90;;;8.30;99.90;;;;;;5092746;28;20169;-53
2021/06/06 00:31:56;;;;;;;1999.90;999.90;;;8.30;99.90;;;;;;5092768;28;20163;-54
2021/06/06 00:34:23;;;;;;;1999.90;999.90;;;8.20;99.90;;;;;;5092731;28;20167;-53
2021/06/06 00:36:51;;;;;;;1999.90;999.90;;;8.20;99.90;;;;;;5092727;28;20160;-53
2021/06/06 00:39:18;;;;;;;1999.90;999.90;;;8.10;99.90;;;;;;5092686;28;20168;-54
2021/06/06 00:41:47;;;;;;;1999.90;999.90;;;8.10;99.90;;;;;;5092645;28;20219;-53
2021/06/06 00:44:14;;;;;;;1999.90;999.90;;;8.10;99.90;;;;;;5092770;28;20167;-51
2021/06/06 00:46:42;;;;;;;1999.90;999.90;;;8.20;99.90;;;;;;5092500;28;20186;-52
2021/06/06 00:49:09;;;;;;;1999.90;999.90;;;8.30;99.90;;;;;;5092474;28;20233;-53
2021/06/06 00:51:57;;;;;;;1999.90;999.90;;;8.30;99.90;;;;;;5092533;28;20246;-53
2021/06/06 00:54:35;;;;;;;1999.90;999.90;;;8.30;99.90;;;;;;5092598;28;20168;-56
2021/06/06 00:57:04;;;;;;;1999.90;999.90;;;8.50;99.90;;;;;;5092450;28;20156;-56
2021/06/06 00:59:35;;;;;;;1999.90;999.90;;;8.50;99.90;;;;;;5092480;28;20168;-54
2021/06/06 01:02:03;;;;;;;1999.90;999.90;;;8.40;99.90;;;;;;5092418;28;20665;-54
2021/06/06 01:04:29;;;;;;;1999.90;999.90;;;8.30;99.90;;;;;;5092424;28;20231;-53
2021/06/06 01:06:56;;;;;;;1999.90;999.90;;;8.20;99.90;;;;;;5092403;28;20176;-56
2021/06/06 01:09:25;;;;;;;1999.90;999.90;;;8.20;99.90;;;;;;5093293;28;20664;-55
2021/06/06 01:12:09;;;;;;;1999.90;999.90;;;8.10;99.90;;;;;;5096021;28;20164;-51
2021/06/06 01:14:49;;;;;;;1999.90;999.90;;;8.00;99.90;;;;;;5096138;28;20605;-52
2021/06/06 01:17:34;;;;;;;1999.90;999.90;;;7.80;99.90;;;;;;5096002;28;20212;-51
2021/06/06 01:20:17;;;;;;;1999.90;999.90;;;7.80;99.90;;;;;;5095982;28;20199;-54
2021/06/06 01:23:25;;;;;;;1999.90;999.90;;;7.70;99.90;;;;;;5095759;28;20306;-53
2021/06/06 01:25:57;;;;;;;1999.90;999.90;;;7.70;99.90;;;;;;5095945;28;20160;-55
2021/06/06 01:28:44;;;;;;;1999.90;999.90;;;7.70;99.90;;;;;;5095845;28;20597;-55
2021/06/06 01:31:14;;;;;;;1999.90;999.90;;;7.70;99.90;;;;;;5095331;28;20263;-53
2021/06/06 01:33:46;;;;;;;1999.90;999.90;;;7.60;99.90;;;;;;5095645;28;20210;-51
2021/06/06 01:36:19;;;;;;;1999.90;999.90;;;7.60;99.90;;;;;;5095623;28;20577;-53
2021/06/06 01:39:22;;;;;;;1999.90;999.90;;;7.60;99.90;;;;;;5096090;28;20155;-52
2021/06/06 01:41:57;;;;;;;1999.90;999.90;;;7.70;99.90;;;;;;5070815;28;20208;-51
2021/06/06 01:44:28;;;;;;;1999.90;999.90;;;7.70;99.90;;;;;;5095455;28;20622;-53
2021/06/06 01:47:17;;;;;;;1999.90;999.90;;;7.70;99.90;;;;;;5095570;28;20203;-54
2021/06/06 01:49:51;;;;;;;1999.90;999.90;;;7.70;99.90;;;;;;5095256;28;20250;-55
2021/06/06 01:52:21;;;;;;;1999.90;999.90;;;7.60;99.90;;;;;;5095354;28;20175;-52
2021/06/06 01:54:49;;;;;;;1999.90;999.90;;;7.70;99.90;;;;;;5095379;28;20175;-55
2021/06/06 01:57:20;;;;;;;1999.90;999.90;;;7.60;99.90;;;;;;5095248;28;20160;-53
2021/06/06 01:59:51;;;;;;;1999.90;999.90;;;7.60;99.90;;;;;;5095188;28;20170;-53
2021/06/06 02:02:18;;;;;;;1999.90;999.90;;;7.40;99.90;;;;;;5095337;28;20294;-52
2021/06/06 02:04:47;;;;;;;1999.90;999.90;;;7.40;99.90;;;;;;5094731;28;20225;-56
2021/06/06 02:07:30;;;;;;;1999.90;999.90;;;7.40;99.90;;;;;;5094943;28;20183;-54
2021/06/06 02:10:09;;;;;;;1999.90;999.90;;;7.30;99.90;;;;;;5094979;28;20158;-54
2021/06/06 02:12:40;;;;;;;1999.90;999.90;;;7.30;99.90;;;;;;5095022;28;20507;-56
2021/06/06 02:15:15;;;;;;;1999.90;999.90;;;7.20;99.90;;;;;;5094879;28;20166;-53
2021/06/06 02:17:42;;;;;;;1999.90;999.90;;;7.20;99.90;;;;;;5094905;28;20340;-52
2021/06/06 02:20:10;;;;;;;1999.90;999.90;;;7.10;99.90;;;;;;5094718;28;20168;-54
2021/06/06 02:22:37;;;;;;;1999.90;999.90;;;7.10;99.90;;;;;;5094438;28;20570;-52
2021/06/06 02:25:05;;;;;;;1999.90;999.90;;;7.00;99.90;;;;;;5094662;28;20622;-56
2021/06/06 02:28:01;;;;;;;1999.90;999.90;;;7.10;99.90;;;;;;5094583;28;20542;-51
2021/06/06 02:31:02;;;;;;;1999.90;999.90;;;7.10;99.90;;;;;;5094510;28;20235;-56
2021/06/06 02:33:52;;;;;;;1999.90;999.90;;;7.10;99.90;;;;;;5094495;28;20174;-51
2021/06/06 02:36:23;;;;;;;1999.90;999.90;;;7.20;99.90;;;;;;5094467;28;20166;-52
2021/06/06 02:39:09;;;;;;;1999.90;999.90;;;7.10;99.90;;;;;;5094472;28;20156;-51
2021/06/06 02:41:42;;;;;;;1999.90;999.90;;;7.10;99.90;;;;;;5094233;28;20171;-54
2021/06/06 02:44:18;;;;;;;1999.90;999.90;;;7.10;99.90;;;;;;5094197;28;20167;-55
2021/06/06 02:46:48;;;;;;;1999.90;999.90;;;7.10;99.90;;;;;;5094287;28;20155;-52
2021/06/06 02:49:20;;;;;;;1999.90;999.90;;;7.10;99.90;;;;;;5075998;28;20175;-55
2021/06/06 02:52:09;;;;;;;1999.90;999.90;;;7.10;99.90;;;;;;5094030;28;20211;-52
2021/06/06 02:54:47;;;;;;;1999.90;999.90;;;7.10;99.90;;;;;;5094110;28;20193;-53
2021/06/06 02:57:17;;;;;;;1999.90;999.90;;;7.10;99.90;;;;;;5094096;28;20582;-52
2021/06/06 02:59:55;;;;;;;1999.90;999.90;;;7.00;99.90;;;;;;5093982;28;20653;-52
2021/06/06 03:02:27;;;;;;;1999.90;999.90;;;7.00;99.90;;;;;;5093927;28;20622;-52
2021/06/06 03:05:00;;;;;;;1999.90;999.90;;;6.90;99.90;;;;;;5093497;28;20280;-52
2021/06/06 03:07:38;;;;;;;1999.90;999.90;;;6.90;99.90;;;;;;5094074;28;20616;-52
2021/06/06 03:10:07;;;;;;;1999.90;999.90;;;6.90;99.90;;;;;;5093976;28;20152;-52
2021/06/06 03:12:35;;;;;;;1999.90;999.90;;;6.90;99.90;;;;;;5093917;28;20674;-53
2021/06/06 03:15:06;;;;;;;1999.90;999.90;;;6.90;99.90;;;;;;5093810;28;20170;-52
2021/06/06 03:17:37;;;;;;;1999.90;999.90;;;6.90;99.90;;;;;;5093775;28;20498;-50
2021/06/06 03:20:24;;;;;;;1999.90;999.90;;;6.90;99.90;;;;;;5093679;28;20579;-55
2021/06/06 03:22:53;;;;;;;1999.90;999.90;;;6.90;99.90;;;;;;5093518;28;20253;-51
2021/06/06 03:25:37;;;;;;;1999.90;999.90;;;6.90;99.90;;;;;;5093614;28;21023;-52
2021/06/06 03:28:05;;;;;;;1999.90;999.90;;;6.80;99.90;;;;;;5093501;28;20158;-54
2021/06/06 03:30:34;;;;;;;1999.90;999.90;;;6.80;99.90;;;;;;5093373;28;20174;-50
2021/06/06 03:33:04;;;;;;;1999.90;999.90;;;6.90;99.90;;;;;;5092878;28;20172;-53
2021/06/06 03:35:31;;;;;;;1999.90;999.90;;;6.90;99.90;;;;;;5093577;28;20653;-56
2021/06/06 03:37:57;;;;;;;1999.90;999.90;;;6.80;99.90;;;;;;5093346;28;20174;-53
2021/06/06 03:40:29;;;;;;;1999.90;999.90;;;6.70;99.90;;;;;;5093295;28;20598;-53
2021/06/06 03:42:56;;;;;;;1999.90;999.90;;;6.70;99.90;;;;;;5093274;28;20195;-52
2021/06/06 03:45:23;;;;;;;1999.90;999.90;;;6.60;99.90;;;;;;5093245;28;20164;-55
2021/06/06 03:47:51;;;;;;;1999.90;999.90;;;6.70;99.90;;;;;;5093219;28;20199;-52
2021/06/06 03:50:19;;;;;;;1999.90;999.90;;;6.60;99.90;;;;;;5093109;28;20195;-52
2021/06/06 03:52:46;;;;;;;1999.90;999.90;;;6.50;99.90;;;;;;5093151;28;20172;-53
2021/06/06 03:55:15;;;;;;;1999.90;999.90;;;6.60;99.90;;;;;;5093152;28;20247;-51
2021/06/06 03:57:42;;;;;;;1999.90;999.90;;;6.50;99.90;;;;;;5093052;28;20163;-52
2021/06/06 04:00:15;;;;;;;1999.90;999.90;;;6.60;99.90;;;;;;5093018;28;20166;-52
2021/06/06 04:02:45;;;;;;;1999.90;999.90;;;6.50;99.90;;;;;;5093077;28;20203;-54
2021/06/06 04:05:13;;;;;;;1999.90;999.90;;;6.50;99.90;;;;;;5092674;28;20218;-54
2021/06/06 04:07:40;;;;;;;1999.90;999.90;;;6.50;99.90;;;;;;5092992;28;20250;-52
2021/06/06 04:10:07;;;;;;;1999.90;999.90;;;6.50;99.90;;;;;;5092977;28;20167;-54
2021/06/06 04:12:34;;;;;;;1999.90;999.90;;;6.40;99.90;;;;;;5092953;28;20168;-54
2021/06/06 04:15:01;;;;;;;1999.90;999.90;;;6.50;99.90;;;;;;5093044;28;20168;-52
2021/06/06 04:17:28;;;;;;;1999.90;999.90;;;6.40;99.90;;;;;;5092905;28;20255;-53
2021/06/06 04:19:55;;;;;;;1999.90;999.90;;;6.40;99.90;;;;;;5092835;28;20164;-56
2021/06/06 04:22:23;;;;;;;1999.90;999.90;;;6.40;99.90;;;;;;5092877;28;20282;-52
2021/06/06 04:24:50;;;;;;;1999.90;999.90;;;6.40;99.90;;;;;;5092851;28;20167;-54
2021/06/06 04:27:17;;;;;;;1999.90;999.90;;;6.40;99.90;;;;;;5092810;28;20178;-52
2021/06/06 04:29:45;;;;;;;1999.90;999.90;;;6.40;99.90;;;;;;5092783;28;20244;-56
2021/06/06 04:32:17;;;;;;;1999.90;999.90;;;6.50;99.90;;;;;;5092722;28;20195;-53
2021/06/06 04:34:46;;;;;;;1999.90;999.90;;;6.50;99.90;;;;;;5092602;28;20195;-54
2021/06/06 04:37:14;;;;;;;1999.90;999.90;;;6.50;99.90;;;;;;5092501;28;20178;-51
2021/06/06 04:39:41;;;;;;;1999.90;999.90;;;6.50;99.90;;;;;;5092510;28;20183;-54
2021/06/06 04:42:10;;;;;;;1999.90;999.90;;;6.50;99.90;;;;;;5092330;28;20202;-51
2021/06/06 04:44:38;;;;;;;1999.90;999.90;;;6.50;99.90;;;;;;5093854;28;20175;-51
2021/06/06 04:47:09;;;;;;;1999.90;999.90;;;6.50;99.90;;;;;;5096542;28;20222;-53
2021/06/06 04:49:38;;;;;;;1999.90;999.90;;;6.40;99.90;;;;;;5096487;28;20510;-55
2021/06/06 04:52:07;;;;;;;1999.90;999.90;;;6.40;99.90;;;;;;5096639;28;20638;-52
2021/06/06 04:54:35;;;;;;;1999.90;999.90;;;6.50;99.90;;;;;;5096517;28;20250;-51
2021/06/06 04:57:04;;;;;;;1999.90;999.90;;;6.40;99.90;;;;;;5096365;28;20168;-50
2021/06/06 04:59:35;;;;;;;1999.90;999.90;;;6.30;99.90;;;;;;5096070;28;20259;-52
2021/06/06 05:02:06;;;;;;;1999.90;999.90;;;6.40;99.90;;;;;;5096016;28;20203;-53
2021/06/06 05:04:37;;;;;;;1999.90;999.90;;;6.40;99.90;;;;;;5096224;28;20305;-52
2021/06/06 05:07:04;;;;;;;1999.90;999.90;;;6.30;99.90;;;;;;5096279;28;20175;-52
2021/06/06 05:09:31;;;;;;;1999.90;999.90;;;6.30;99.90;;;;;;5096166;28;20181;-52
2021/06/06 05:11:58;;;;;;;1999.90;999.90;;;6.20;99.90;;;;;;5095984;28;20174;-52
2021/06/06 05:14:25;;;;;;;1999.90;999.90;;;6.20;99.90;;;;;;5096118;28;20179;-52
2021/06/06 05:16:52;;;;;;;1999.90;999.90;;;6.30;99.90;;;;;;5096022;28;20170;-51
2021/06/06 05:19:19;;;;;;;1999.90;999.90;;;6.30;99.90;;;;;;5095958;28;20259;-51
2021/06/06 05:21:46;;;;;;;1999.90;999.90;;;6.40;99.90;;;;;;5095787;28;20316;-53
2021/06/06 05:24:13;;;;;;;1999.90;999.90;;;6.40;99.90;;;;;;5095842;28;20195;-53
2021/06/06 05:26:40;;;;;;;1999.90;999.90;;;6.40;99.90;;;;;;5095886;28;20572;-56
2021/06/06 05:29:07;;;;;;;1999.90;999.90;;;6.40;99.90;;;;;;5095846;28;20182;-56
2021/06/06 05:31:34;;;;;;;1999.90;999.90;;;6.50;99.90;;;;;;5095616;28;20168;-52
2021/06/06 05:34:01;;;;;;;1999.90;999.90;;;6.40;99.90;;;;;;5095536;28;20264;-53
2021/06/06 05:36:28;;;;;;;1999.90;999.90;;;6.40;99.90;;;;;;5095620;28;20168;-53
2021/06/06 05:38:55;;;;;;;1999.90;999.90;;;6.40;99.90;;;;;;5095552;28;20174;-52
2021/06/06 05:41:22;;;;;;;1999.90;999.90;;;6.30;99.90;;;;;;5095516;28;20202;-52
2021/06/06 05:43:49;;;;;;;1999.90;999.90;;;6.40;99.90;;;;;;5095360;28;20617;-52
2021/06/06 05:46:19;;;;;;;1999.90;999.90;;;6.40;99.90;;;;;;5095402;28;20172;-51
2021/06/06 05:48:46;;;;;;;1999.90;999.90;;;6.50;99.90;;;;;;5095381;28;20535;-53
2021/06/06 05:51:13;;;;;;;1999.90;999.90;;;6.40;99.90;;;;;;5095347;28;20253;-51
2021/06/06 05:53:40;;;;;;;1999.90;999.90;;;6.30;99.90;;;;;;5095051;28;20179;-52
2021/06/06 05:56:09;;;;;;;1999.90;999.90;;;6.40;99.90;;;;;;5094955;28;20175;-56
2021/06/06 05:58:37;;;;;;;1999.90;999.90;;;6.40;99.90;;;;;;5095315;28;20218;-54
2021/06/06 06:01:05;;;;;;;1999.90;999.90;;;6.40;99.90;;;;;;5094942;28;20176;-52
2021/06/06 06:03:31;;;;;;;1999.90;999.90;;;6.40;99.90;;;;;;5094855;28;20676;-51
2021/06/06 06:05:59;;;;;;;1999.90;999.90;;;6.40;99.90;;;;;;5095127;28;20284;-50
2021/06/06 06:08:29;;;;;;;1999.90;999.90;;;6.40;99.90;;;;;;5095021;28;20524;-51
2021/06/06 06:10:57;;;;;;;1999.90;999.90;;;6.50;99.90;;;;;;5094895;28;20570;-53
2021/06/06 06:13:27;;;;;;;1999.90;999.90;;;6.50;99.90;;;;;;5094909;28;20175;-53
2021/06/06 06:16:01;;;;;;;1999.90;999.90;;;6.50;99.90;;;;;;5094874;28;20249;-52
2021/06/06 06:18:31;;;;;;;1999.90;999.90;;;6.60;99.90;;;;;;5094906;28;20165;-51
2021/06/06 06:20:59;;;;;;;1999.90;999.90;;;6.60;99.90;;;;;;5094719;28;20169;-50
2021/06/06 06:23:27;;;;;;;1999.90;999.90;;;6.70;99.90;;;;;;5094620;28;20206;-54
2021/06/06 06:25:54;;;;;;;1999.90;999.90;;;6.70;99.90;;;;;;5094591;28;20617;-51
2021/06/06 06:28:23;;;;;;;1999.90;999.90;;;6.80;99.90;;;;;;5094564;28;20275;-52
2021/06/06 06:30:50;;;;;;;1999.90;999.90;;;6.90;99.90;;;;;;5094014;28;20189;-51
2021/06/06 06:33:17;;;;;;;1999.90;999.90;;;7.00;99.90;;;;;;5093974;28;20252;-51
2021/06/06 06:35:44;;;;;;;1999.90;999.90;;;7.10;99.90;;;;;;5094066;28;20164;-53
2021/06/06 06:38:11;;;;;;;1999.90;999.90;;;7.20;99.90;;;;;;5093866;28;20187;-55
2021/06/06 06:40:38;;;;;;;1999.90;999.90;;;7.20;99.90;;;;;;5093848;28;20170;-55
2021/06/06 06:43:06;;;;;;;1999.90;999.90;;;7.30;99.90;;;;;;5093723;28;20639;-53
2021/06/06 06:45:41;;;;;;;1999.90;999.90;;;7.40;99.90;;;;;;5093719;28;20164;-56
2021/06/06 06:48:14;;;;;;;1999.90;999.90;;;7.50;99.90;;;;;;5093642;28;20626;-51
2021/06/06 06:50:42;;;;;;;1999.90;999.90;;;7.50;99.90;;;;;;5093867;28;20169;-52
2021/06/06 06:53:10;;;;;;;1999.90;999.90;;;7.60;99.90;;;;;;5093601;28;20175;-51
2021/06/06 06:55:38;;;;;;;1999.90;999.90;;;7.70;99.90;;;;;;5093515;28;20258;-51
2021/06/06 06:58:06;;;;;;;1999.90;999.90;;;7.90;99.90;;;;;;5093592;28;20171;-52
2021/06/06 07:00:37;;;;;;;1999.90;999.90;;;7.90;99.90;;;;;;5093397;28;20168;-55
2021/06/06 07:03:06;;;;;;;1999.90;999.90;;;8.00;99.90;;;;;;5093372;28;20215;-52
2021/06/06 07:05:33;;;;;;;1999.90;999.90;;;8.10;99.90;;;;;;5093380;28;20276;-52
2021/06/06 07:08:00;;;;;;;1999.90;999.90;;;8.30;99.90;;;;;;5092720;28;20172;-52
2021/06/06 07:10:31;;;;;;;1999.90;999.90;;;8.40;99.90;;;;;;5093400;28;20179;-51
2021/06/06 07:12:59;;;;;;;1999.90;999.90;;;8.50;99.90;;;;;;5093212;28;20246;-48
2021/06/06 07:15:26;;;;;;;1999.90;999.90;;;8.60;99.90;;;;;;5093415;28;20176;-52
2021/06/06 07:17:53;;;;;;;1999.90;999.90;;;8.80;99.90;;;;;;5093056;28;20164;-53
2021/06/06 07:20:24;;;;;;;1999.90;999.90;;;8.90;99.90;;;;;;5093072;28;20308;-54
2021/06/06 07:22:51;;;;;;;1999.90;999.90;;;9.10;99.90;;;;;;5093024;28;20198;-52
2021/06/06 07:25:18;;;;;;;1999.90;999.90;;;9.20;99.90;;;;;;5092987;28;20180;-54
2021/06/06 07:27:47;;;;;;;1999.90;999.90;;;9.40;99.90;;;;;;5092991;28;20209;-56
2021/06/06 07:30:30;;;;;;;1999.90;999.90;;;9.60;99.90;;;;;;5092675;28;20258;-56
2021/06/06 07:32:58;;;;;;;1999.90;999.90;;;9.90;99.90;;;;;;5092964;28;20159;-56
2021/06/06 07:35:28;;;;;;;1999.90;999.90;;;10.10;99.90;;;;;;5092662;28;20168;-54
2021/06/06 07:37:56;;;;;;;1999.90;999.90;;;10.20;99.90;;;;;;5092759;28;20174;-57
2021/06/06 07:40:26;;;;;;;1999.90;999.90;;;10.40;99.90;;;;;;5092557;28;20168;-57
2021/06/06 07:42:53;;;;;;;1999.90;999.90;;;10.50;99.90;;;;;;5092557;28;20207;-55
2021/06/06 07:45:22;;;;;;;1999.90;999.90;;;10.60;99.90;;;;;;5092680;28;20521;-55
2021/06/06 07:47:49;;;;;;;1999.90;999.90;;;10.80;99.90;;;;;;5092600;28;20178;-52
2021/06/06 07:50:21;;;;;;;1999.90;999.90;;;11.00;99.90;;;;;;5092746;28;20174;-57
2021/06/06 07:52:48;;;;;;;1999.90;999.90;;;11.10;99.90;;;;;;5092590;28;20159;-56
2021/06/06 07:55:17;;;;;;;1999.90;999.90;;;11.30;99.90;;;;;;5092477;28;20184;-52
2021/06/06 07:57:45;;;;;;;1999.90;999.90;;;11.40;99.90;;;;;;5092593;28;20179;-55
2021/06/06 08:00:19;;;;;;;1999.90;999.90;;;11.50;99.90;;;;;;5092360;28;20202;-58
2021/06/06 08:02:46;;;;;;;1999.90;999.90;;;11.80;99.90;;;;;;5092458;28;20187;-60
2021/06/06 08:05:14;;;;;;;1999.90;999.90;;;12.00;99.90;;;;;;5092310;28;20235;-58
2021/06/06 08:07:41;;;;;;;1999.90;999.90;;;12.20;99.90;;;;;;5092587;28;20156;-56
2021/06/06 08:10:11;;;;;;;1999.90;999.90;;;12.40;99.90;;;;;;5092487;28;20175;-57
2021/06/06 08:12:38;;;;;;;1999.90;999.90;;;12.70;99.90;;;;;;5092371;28;20164;-56
2021/06/06 08:15:07;;;;;;;1999.90;999.90;;;12.90;99.90;;;;;;5092599;28;20174;-56
2021/06/06 08:17:34;;;;;;;1999.90;999.90;;;13.20;99.90;;;;;;5091935;28;20245;-57
2021/06/06 08:20:01;;;;;;;1999.90;999.90;;;13.50;99.90;;;;;;5096302;28;20694;-54
2021/06/06 08:22:28;;;;;;;1999.90;999.90;;;13.70;99.90;;;;;;5096879;28;20240;-54
2021/06/06 08:24:54;;;;;;;1999.90;999.90;;;13.90;99.90;;;;;;5096831;28;20613;-55
2021/06/06 08:27:21;;;;;;;1999.90;999.90;;;14.20;99.90;;;;;;5096447;28;20167;-57
2021/06/06 08:29:48;;;;;;;1999.90;999.90;;;14.60;99.50;;;;;;5096096;28;20183;-56
2021/06/06 08:32:16;;;;;;;1999.90;999.90;;;14.80;98.40;;;;;;5096545;28;20626;-57
2021/06/06 08:34:43;;;;;;;1999.90;999.90;;;15.10;96.80;;;;;;5096498;28;20163;-56
2021/06/06 08:37:10;;;;;;;1999.90;999.90;;;15.40;93.50;;;;;;5096232;28;20190;-55
2021/06/06 08:39:37;;;;;;;1999.90;999.90;;;15.70;91.10;;;;;;5096617;28;20172;-58
2021/06/06 08:42:24;;;;;;;1999.90;999.90;;;15.90;90.60;;;;;;5096331;28;20183;-57
2021/06/06 08:45:13;;;;;;;1999.90;999.90;;;16.20;90.20;;;;;;5096396;28;20200;-57
2021/06/06 08:47:40;;;;;;;1999.90;999.90;;;16.40;90.20;;;;;;5095867;28;20182;-57
2021/06/06 08:50:13;;;;;;;1999.90;999.90;;;16.70;91.40;;;;;;5096309;28;20168;-56
2021/06/06 08:53:14;;;;;;;1999.90;999.90;;;17.10;91.40;;;;;;5078003;28;20174;-56
2021/06/06 08:56:05;;;;;;;1999.90;999.90;;;17.50;89.80;;;;;;5096141;28;20148;-57
2021/06/06 08:58:35;;;;;;;1999.90;999.90;;;17.60;88.00;;;;;;5096016;28;20179;-58
2021/06/06 09:01:14;;;;;;;1999.90;999.90;;;17.80;84.30;;;;;;5095999;28;20285;-56
2021/06/06 09:03:41;;;;;;;1999.90;999.90;;;18.00;76.30;;;;;;5095454;28;20208;-58
2021/06/06 09:06:24;;;;;;;1999.90;999.90;;;18.30;64.50;;;;;;5095908;28;20159;-57
2021/06/06 09:08:51;;;;;;;1999.90;999.90;;;18.40;57.50;;;;;;5095477;28;20671;-57
2021/06/06 09:11:21;;;;;;;1999.90;999.90;;;18.60;54.10;;;;;;5095588;28;21044;-58
2021/06/06 09:13:48;;;;;;;1999.90;999.90;;;19.00;52.90;;;;;;5095553;28;20172;-58
2021/06/06 09:16:18;;;;;;;1999.90;999.90;;;19.20;55.00;;;;;;5095284;28;20176;-58
2021/06/06 09:18:46;;;;;;;1999.90;999.90;;;19.30;50.40;;;;;;5095300;28;20180;-58
2021/06/06 09:21:20;;;;;;;1999.90;999.90;;;19.50;49.50;;;;;;5095289;28;20180;-59
2021/06/06 09:23:51;;;;;;;1999.90;999.90;;;19.70;48.20;;;;;;5095591;28;20231;-58
2021/06/06 09:26:18;;;;;;;1999.90;999.90;;;19.90;50.20;;;;;;5095174;28;20571;-56
2021/06/06 09:28:49;;;;;;;1999.90;999.90;;;20.00;49.50;;;;;;5095402;28;20203;-58
2021/06/06 09:31:23;;;;;;;1999.90;999.90;;;20.20;48.50;;;;;;5094585;28;20637;-58
2021/06/06 09:34:02;;;;;;;1999.90;999.90;;;20.30;46.70;;;;;;5095335;28;20168;-57
2021/06/06 09:36:37;;;;;;;1999.90;999.90;;;20.50;45.80;;;;;;5095357;28;20156;-58
2021/06/06 09:39:19;;;;;;;1999.90;999.90;;;20.60;45.30;;;;;;5095076;28;20167;-58
2021/06/06 09:41:58;;;;;;;1999.90;999.90;;;20.80;45.70;;;;;;5095160;28;20152;-59
2021/06/06 09:44:32;;;;;;;1999.90;999.90;;;20.90;46.10;;;;;;5095017;28;20602;-59
2021/06/06 09:47:08;;;;;;;1999.90;999.90;;;21.10;45.10;;;;;;5095008;28;20195;-57
2021/06/06 09:49:39;;;;;;;1999.90;999.90;;;21.20;44.50;;;;;;5095097;28;20199;-59
2021/06/06 09:52:51;;;;;;;1999.90;999.90;;;21.40;45.50;;;;;;5094998;28;20207;-59
2021/06/06 09:55:33;;;;;;;1999.90;999.90;;;21.50;43.60;;;;;;5094615;28;20551;-59
2021/06/06 09:58:17;;;;;;;1999.90;999.90;;;21.60;44.20;;;;;;5094930;28;20164;-59
2021/06/06 10:00:50;;;;;;;1999.90;999.90;;;21.80;44.00;;;;;;5094606;28;20163;-57
2021/06/06 10:03:23;;;;;;;1999.90;999.90;;;21.90;43.70;;;;;;5094516;28;20302;-58
2021/06/06 10:05:51;;;;;;;1999.90;999.90;;;22.00;44.40;;;;;;5094337;28;20227;-58
2021/06/06 10:08:26;;;;;;;1999.90;999.90;;;22.00;43.30;;;;;;5094645;28;20171;-57
2021/06/06 10:11:07;;;;;;;1999.90;999.90;;;22.10;44.90;;;;;;5094675;28;20164;-58
2021/06/06 10:13:38;;;;;;;1999.90;999.90;;;22.30;45.00;;;;;;5094621;28;20164;-59
2021/06/06 10:16:13;;;;;;;1999.90;999.90;;;22.50;44.60;;;;;;5094807;28;20187;-60
2021/06/06 10:19:01;;;;;;;1999.90;999.90;;;22.70;45.00;;;;;;5094607;28;20602;-60
2021/06/06 10:21:35;;;;;;;1999.90;999.90;;;22.80;43.50;;;;;;5094650;28;20194;-58
2021/06/06 10:24:45;;;;;;;1999.90;999.90;;;22.90;43.90;;;;;;5094255;28;20223;-58
2021/06/06 10:27:24;;;;;;;1999.90;999.90;;;23.00;43.50;;;;;;5055740;28;20240;-59
2021/06/06 10:30:10;;;;;;;1999.90;999.90;;;23.20;43.70;;;;;;5094000;28;20152;-59
2021/06/06 10:32:43;;;;;;;1999.90;999.90;;;23.30;43.10;;;;;;5094156;28;20218;-58
2021/06/06 10:35:31;;;;;;;1999.90;999.90;;;23.50;41.20;;;;;;5093894;28;20162;-59
2021/06/06 10:38:00;;;;;;;1999.90;999.90;;;23.80;42.30;;;;;;5094049;28;20156;-59
2021/06/06 10:40:35;;;;;;;1999.90;999.90;;;23.90;42.40;;;;;;5093977;28;20618;-59
2021/06/06 10:43:23;;;;;;;1999.90;999.90;;;24.10;41.70;;;;;;5093096;28;20537;-59
2021/06/06 10:46:23;;;;;;;1999.90;999.90;;;24.50;30.60;;;;;;5094078;28;20144;-58
2021/06/06 10:49:22;;;;;;;1999.90;999.90;;;24.80;28.60;;;;;;5093939;28;20247;-59
2021/06/06 10:51:59;;;;;;;1999.90;999.90;;;25.00;28.70;;;;;;5086978;28;20259;-59
2021/06/06 10:54:56;;;;;;;1999.90;999.90;;;25.10;29.80;;;;;;5093507;28;20179;-58
2021/06/06 10:57:26;;;;;;;1999.90;999.90;;;25.00;32.10;;;;;;5090527;28;20258;-61
2021/06/06 10:59:55;;;;;;;1999.90;999.90;;;25.10;33.40;;;;;;5094058;28;20172;-59
2021/06/06 11:02:50;;;;;;;1999.90;999.90;;;25.20;33.50;;;;;;5093651;28;20196;-59
2021/06/06 11:05:47;;;;;;;1999.90;999.90;;;25.40;33.70;;;;;;5093290;28;20290;-60
2021/06/06 11:08:39;;;;;;;1999.90;999.90;;;25.40;29.90;;;;;;5093692;28;20163;-60
2021/06/06 11:11:12;;;;;;;1999.90;999.90;;;25.40;30.30;;;;;;5084593;28;20270;-56
2021/06/06 11:14:05;;;;;;;1999.90;999.90;;;25.40;30.40;;;;;;5093256;28;20178;-60
2021/06/06 11:16:36;;;;;;;1999.90;999.90;;;25.40;31.90;;;;;;5075718;28;20588;-58
2021/06/06 11:19:30;;;;;;;1999.90;999.90;;;25.50;31.80;;;;;;5093192;28;20196;-59
2021/06/06 11:22:04;;;;;;;1999.90;999.90;;;25.50;31.30;;;;;;5093166;28;20160;-58
2021/06/06 11:24:43;;;;;;;1999.90;999.90;;;25.50;31.10;;;;;;5092966;28;20183;-59
2021/06/06 11:27:16;;;;;;;1999.90;999.90;;;25.50;31.00;;;;;;5092893;28;20180;-58
2021/06/06 11:30:02;;;;;;;1999.90;999.90;;;25.50;31.80;;;;;;5093134;28;20171;-58
2021/06/06 11:32:44;;;;;;;1999.90;999.90;;;25.30;31.50;;;;;;5093193;28;20649;-58
2021/06/06 11:35:29;;;;;;;1999.90;999.90;;;25.20;30.90;;;;;;5093149;28;20148;-59
2021/06/06 11:38:16;;;;;;;1999.90;999.90;;;25.20;30.30;;;;;;5092964;28;20164;-59
2021/06/06 11:40:49;;;;;;;1999.90;999.90;;;25.20;30.80;;;;;;5093024;28;20159;-59
2021/06/06 11:43:27;;;;;;;1999.90;999.90;;;25.20;31.70;;;;;;5092765;28;20190;-59
2021/06/06 11:46:15;;;;;;;1999.90;999.90;;;25.20;30.00;;;;;;5092664;28;20607;-59
2021/06/06 11:48:57;;;;;;;1999.90;999.90;;;25.20;31.30;;;;;;5092654;28;20191;-59
2021/06/06 11:51:42;;;;;;;1999.90;999.90;;;25.20;30.70;;;;;;5092737;28;20656;-59
2021/06/06 11:54:24;;;;;;;1999.90;999.90;;;25.10;31.30;;;;;;5092623;28;20614;-59
2021/06/06 11:56:55;;;;;;;1999.90;999.90;;;25.20;33.00;;;;;;5092791;28;20157;-60
2021/06/06 11:59:39;;;;;;;1999.90;999.90;;;25.20;31.40;;;;;;5092703;28;20540;-59
2021/06/06 12:02:32;;;;;;;1999.90;999.90;;;25.20;32.20;;;;;;5092605;28;20187;-59
2021/06/06 12:05:12;;;;;;;1999.90;999.90;;;25.20;32.80;;;;;;5092307;28;20716;-60
2021/06/06 12:07:46;;;;;;;1999.90;999.90;;;25.20;32.10;;;;;;5092787;28;20559;-60
2021/06/06 12:10:26;;;;;;;1999.90;999.90;;;25.30;34.40;;;;;;5092617;28;20259;-60
2021/06/06 12:12:57;;;;;;;1999.90;999.90;;;25.30;32.20;;;;;;5092609;28;20152;-59
2021/06/06 12:15:37;;;;;;;1999.90;999.90;;;25.40;31.40;;;;;;5092775;28;20267;-60
2021/06/06 12:18:10;;;;;;;1999.90;999.90;;;25.40;31.40;;;;;;5092640;28;20183;-60
2021/06/06 12:20:52;;;;;;;1999.90;999.90;;;25.40;30.60;;;;;;5092788;28;20163;-59
2021/06/06 12:23:27;;;;;;;1999.90;999.90;;;25.40;30.20;;;;;;5092485;28;20249;-59
2021/06/06 12:25:57;;;;;;;1999.90;999.90;;;25.40;30.60;;;;;;5092635;28;20155;-60
2021/06/06 12:28:25;;;;;;;1999.90;999.90;;;25.40;30.20;;;;;;5092576;28;20578;-59
2021/06/06 12:30:58;;;;;;;1999.90;999.90;;;25.30;31.00;;;;;;5092656;28;20527;-58
2021/06/06 12:33:35;;;;;;;1999.90;999.90;;;25.40;30.40;;;;;;5092395;28;20168;-58